Yachats, OR (97498)

9:56 AM PDT on August 27, 2016 (GMT -0700)
APRSWXNET | | Change Station

Elev 72 ft 44.34 °N, 124.09 °W | Updated 21 minutes ago

Overcast
Overcast
50.0 °F
Feels Like 50.0 °F
N
0.0
Wind Variable Wind from WNW
Gusts 7.0 mph

Today
High -- | Low -- °F
--% Chance of Precip.
Yesterday
High -- | Low -- °F
Precip. -- in
Pressure 30.04 in
Visibility 1.5 miles
Clouds Overcast 300 ft
Dew Point 50.0 °F
Humidity 100%
Rainfall in
Snow Depth Not available.
6:34 AM 8:00 PM
Waning Crescent, 23% visible
METAR KONP 271635Z AUTO 21006KT 1 1/2SM BR OVC003 12/12 A3004 RMK AO2
Pressure 30.04 in
Visibility 1.5 miles
Clouds Overcast 300 ft
Dew Point 50.0 °F
Humidity 100%
Rainfall in
Snow Depth Not available.
6:34 AM 8:00 PM
Waning Crescent, 23% visible
METAR KONP 271635Z AUTO 21006KT 1 1/2SM BR OVC003 12/12 A3004 RMK AO2

10-Day Weather Forecast

Almanac

Astronomy

Aug. 27, 2016 Rise Set
Actual Time
Civil Twilight
Nautical Twilight
Astronomical Twilight
Moon
Length of Visible Light
Length of Day
Tomorrow will be .
, % of the Moon is Illuminated

Today's Extremes

State Highs State Lows

Community

WunderPhotos

Upload Photos

1,935,377 photos uploaded!

WunderBlog® & News

Nearby

Air Quality

  Air Quality AQ Index Pollutant
Not available.

Snow Depth

Station Depth Elevation

Earthquake Activity

City Distance Mag. Time & Date
Minimum magnitude displayed is 2.5.

Coastal Water Temperatures

Place Temperature

Stations

Nearby Weather Stations

Station Location Temp. Windchill Dew Point Humidity Wind Precip. Elev Updated Type
                   

Watches & Warnings

There are currently no watches in effect.